Terminal Aerodrome Forecast
Issued by NWS

Home | Current Version | Previous Version | Text Only | Print | Product List | Glossary On
Versions: 1 2 3 4 5 6 7 8 9 10 11 12 13 14 15 16 17 18 19 20
000
FTUS41 KBGM 212320
TAFRME
TAF
KRME 212320Z 2200/2224 VRB03KT P6SM BKN250
      TEMPO 2210/2214 1 1/2SM BR BKN003
     FM221500 31006KT P6SM SCT250=

USA.gov is the U.S. government's official web portal to all federal, state and local government web resources and services.